Time;durP1;ratioP1;P1;durP2;ratioP2;P2;SDS_P1;SDS_P2;PMS_P1;PMS_P2;Temp;Humidity;BMP_temperature;BMP_pressure;BME280_temperature;BME280_humidity;BME280_pressure;Samples;Min_cycle;Max_cycle;Signal;HPM_P1;HPM_P2
2023/03/01 13:20:27;;;;;;;20.30;13.60;;;9.50;50.00;;;;;;21151680;27;20587;-74
2023/03/01 13:30:35;;;;;;;18.17;13.10;;;9.50;50.00;;;;;;21149644;28;20310;-74
2023/03/01 13:40:49;;;;;;;19.67;13.00;;;9.80;50.10;;;;;;21149598;28;20214;-75
2023/03/01 13:50:56;;;;;;;26.60;13.47;;;9.90;49.90;;;;;;21223546;27;20280;-75
2023/03/01 14:01:06;;;;;;;19.97;12.70;;;10.20;49.10;;;;;;21232686;27;20203;-74
2023/03/01 14:11:46;;;;;;;19.33;13.03;;;10.50;48.90;;;;;;21231618;27;20239;-73
2023/03/01 14:21:49;;;;;;;30.73;12.27;;;10.90;48.10;;;;;;21232116;27;20651;-73
2023/03/01 14:31:50;;;;;;;20.87;11.93;;;10.90;48.50;;;;;;21174093;28;20227;-75
2023/03/01 14:41:54;;;;;;;17.80;12.30;;;11.90;46.60;;;;;;21179798;27;20228;-71
2023/03/01 14:52:05;;;;;;;18.53;11.73;;;13.10;45.00;;;;;;21095231;28;20226;-72
2023/03/01 15:02:16;;;;;;;15.45;12.07;;;13.60;45.10;;;;;;21085524;28;20795;-72
2023/03/01 15:12:39;;;;;;;15.00;10.57;;;16.50;41.10;;;;;;21085848;28;20242;-70
2023/03/01 15:22:48;;;;;;;15.40;10.53;;;17.80;38.80;;;;;;21085288;28;20654;-70
2023/03/01 15:33:28;;;;;;;15.57;10.47;;;15.20;39.40;;;;;;21084194;28;20232;-73
2023/03/01 15:43:46;;;;;;;15.77;10.50;;;15.30;39.80;;;;;;21082157;28;20267;-71
2023/03/01 15:53:52;;;;;;;16.37;10.67;;;12.80;42.70;;;;;;21082890;28;20240;-71
2023/03/01 16:03:56;;;;;;;17.37;11.60;;;13.00;48.50;;;;;;21082736;28;20210;-71
2023/03/01 16:13:58;;;;;;;17.70;11.27;;;10.80;43.70;;;;;;21081250;28;20239;-72
2023/03/01 16:23:59;;;;;;;23.53;12.30;;;10.00;45.10;;;;;;21080976;28;20302;-73
2023/03/01 16:34:01;;;;;;;17.63;11.60;;;9.50;47.40;;;;;;21080894;28;20724;-71
2023/03/01 16:47:56;;;;;;;20.33;12.40;;;9.10;49.00;;;;;;20984556;28;21113;-72
2023/03/01 16:57:57;;;;;;;18.50;12.73;;;8.70;50.10;;;;;;20983341;28;20245;-72
2023/03/01 17:07:59;;;;;;;20.23;12.73;;;8.40;51.00;;;;;;20977153;28;20302;-72
2023/03/01 17:18:02;;;;;;;23.57;12.33;;;8.00;51.80;;;;;;20935615;28;20681;-74
2023/03/01 17:33:51;;;;;;;22.13;13.20;;;7.70;53.00;;;;;;20984503;28;21141;-73
2023/03/01 17:43:53;;;;;;;21.73;13.17;;;7.50;53.70;;;;;;20983429;28;20211;-73
2023/03/01 17:53:54;;;;;;;23.27;13.67;;;7.30;54.20;;;;;;20982759;28;20213;-73
2023/03/01 18:03:56;;;;;;;23.77;13.87;;;7.20;54.90;;;;;;20982074;28;20209;-75
2023/03/01 18:20:57;;;;;;;23.70;14.77;;;7.00;55.60;;;;;;20984491;28;21089;-74
2023/03/01 18:31:07;;;;;;;26.57;14.93;;;6.80;56.40;;;;;;20984080;28;20214;-78
2023/03/01 18:41:09;;;;;;;25.50;15.03;;;6.70;56.70;;;;;;20989620;28;20683;-76
2023/03/01 18:51:15;;;;;;;25.77;14.63;;;6.60;57.10;;;;;;20989268;28;20297;-75
2023/03/01 19:01:22;;;;;;;23.90;18.27;;;6.70;58.00;;;;;;21033355;28;20468;-74
2023/03/01 19:11:29;;;;;;;26.13;15.20;;;6.50;57.90;;;;;;21060476;28;20232;-74
2023/03/01 19:21:32;;;;;;;25.60;15.10;;;6.30;57.90;;;;;;21048609;28;20223;-74
2023/03/01 19:31:35;;;;;;;25.27;15.90;;;;;;;;;;20911671;28;20440;-73
2023/03/01 19:41:36;;;;;;;25.57;15.37;;;6.10;58.30;;;;;;20870173;28;20241;-72
2023/03/01 19:51:38;;;;;;;27.47;16.00;;;6.00;58.60;;;;;;20892358;28;20285;-74
2023/03/01 20:01:43;;;;;;;25.23;15.57;;;6.00;58.90;;;;;;20885610;28;20210;-73
2023/03/01 20:11:45;;;;;;;25.57;15.43;;;5.90;59.10;;;;;;20879743;28;20239;-73
2023/03/01 20:21:47;;;;;;;26.60;16.20;;;;;;;;;;20877614;28;20661;-74
2023/03/01 20:31:49;;;;;;;27.43;16.57;;;5.70;59.70;;;;;;20878818;28;20228;-74
2023/03/01 20:41:51;;;;;;;23.50;15.30;;;5.60;59.80;;;;;;20880198;28;20204;-75
2023/03/01 20:51:52;;;;;;;30.97;17.37;;;5.60;60.20;;;;;;20876410;28;20237;-73
2023/03/01 21:01:54;;;;;;;29.30;17.10;;;5.50;60.40;;;;;;20882605;28;20223;-71
2023/03/01 21:11:56;;;;;;;29.93;16.47;;;5.40;60.60;;;;;;20863429;28;20239;-71
2023/03/01 21:21:58;;;;;;;30.33;17.60;;;5.30;61.00;;;;;;20874369;28;20200;-72
2023/03/01 21:31:59;;;;;;;31.80;18.53;;;5.20;61.20;;;;;;20869583;28;20231;-71
2023/03/01 21:42:05;;;;;;;31.60;17.60;;;5.00;61.70;;;;;;20906605;28;20200;-73
2023/03/01 21:52:06;;;;;;;29.43;18.07;;;4.80;62.00;;;;;;20912981;28;20235;-73
2023/03/01 22:02:13;;;;;;;31.60;18.20;;;4.70;62.70;;;;;;20913205;28;20570;-74
2023/03/01 22:12:14;;;;;;;34.33;18.00;;;4.70;63.00;;;;;;20912041;28;20235;-73
2023/03/01 22:22:16;;;;;;;31.67;19.53;;;4.50;63.20;;;;;;20911954;28;20261;-72
2023/03/01 22:32:18;;;;;;;32.87;19.10;;;4.40;63.70;;;;;;20911911;28;20278;-72
2023/03/01 22:42:20;;;;;;;30.10;17.90;;;4.40;63.90;;;;;;20988352;28;20627;-72
2023/03/01 22:52:22;;;;;;;35.10;18.93;;;4.30;64.20;;;;;;20994671;28;20235;-71
2023/03/01 23:07:48;;;;;;;32.70;18.70;;;4.30;64.60;;;;;;21068128;28;20928;-74
2023/03/01 23:17:50;;;;;;;30.70;18.97;;;4.30;64.80;;;;;;21067485;28;20210;-74
2023/03/01 23:27:52;;;;;;;30.20;17.73;;;4.30;64.90;;;;;;21066606;28;20209;-74
2023/03/01 23:37:54;;;;;;;31.43;18.60;;;4.40;65.20;;;;;;21065885;28;20206;-74
2023/03/01 23:48:40;;;;;;;33.87;18.63;;;4.20;65.30;;;;;;21068021;28;20540;-74
2023/03/01 23:58:42;;;;;;;30.40;17.80;;;4.20;65.80;;;;;;20983961;28;20256;-74
